Terminal Aerodrome Forecast
Issued by NWS

Home | Current Version | Previous Version | Text Only | Print | Product List | Glossary On
Versions: 1 2 3 4 5 6 7 8 9 10 11 12 13 14 15 16 17 18 19 20 21 22
596
FTUS43 KLSX 161131
TAFSUS
TAF
KSUS 161131Z 1612/1712 11006KT 1 1/2SM BR VCSH OVC003
      TEMPO 1612/1616 3/4SM BR OVC002
     FM161600 13006KT 3SM -SHRA BR OVC003
     FM161800 14009KT 4SM -SHRA BR OVC004
     FM162100 14010KT 4SM -SHRA BR OVC006
     FM170200 18008KT 5SM -SHRA BR OVC012
     FM170500 22009KT 5SM BR OVC012=

USA.gov is the U.S. government's official web portal to all federal, state and local government web resources and services.